Current | Forecast
Updated: 11:30 AM CEST on October 17, 2017
Observed at Paris Le Bourget, France
Temperature 17°C
Humidity 77%
Dew Point 13°C
Wind Variable at 6 km/h
Pressure 1021 hPa (Falling)
Conditions Mostly Cloudy
Visibility 10.0 kilometers
UV 1 out of 16
Clouds Mostly Cloudy (BKN) : 1341 m
Yesterday's Maximum 25°C
Yesterday's Minimum 14°C approx.
Yesterday's Cooling Degree Days 2 approx.
Sunrise8:14 AM CEST
Sunset6:56 PM CEST
Moon Rise5:17 AM CEST
Moon Set6:21 PM CEST
Moon PhaseMoon Phase
Waning Crescent
Raw METARMETAR LFPB 170930Z AUTO VRB03KT 9999 BKN044 17/13 Q1021 NOSIG



Units: English | Metric

Find the Weather for any City, State or Zipcode, or Country:

U.S. State List | Severe Weather | Tropical Storms | Ski Conditions
United States | Canada | Central America | South America | Asia | Europe | Australia | Africa | Islands

Weather Underground

© Copyright 2017
The Weather Company, LLC